sensor_id;sensor_type;location;lat;lon;timestamp;pressure;altitude;pressure_sealevel;temperature;humidity
34235;BME280;20500;49.856;20.290;2024-01-10T00:00:44;100745.41;;;-18.24;65.29
34235;BME280;20500;49.856;20.290;2024-01-10T00:03:50;100742.29;;;-18.24;65.23
34235;BME280;20500;49.856;20.290;2024-01-10T00:06:57;100743.59;;;-18.27;65.15
34235;BME280;20500;49.856;20.290;2024-01-10T00:10:05;100738.41;;;-18.33;65.05
34235;BME280;20500;49.856;20.290;2024-01-10T00:13:12;100732.04;;;-18.39;65.03
34235;BME280;20500;49.856;20.290;2024-01-10T00:16:18;100736.87;;;-18.40;65.14
34235;BME280;20500;49.856;20.290;2024-01-10T00:19:24;100741.33;;;-18.49;64.81
34235;BME280;20500;49.856;20.290;2024-01-10T00:22:31;100739.68;;;-18.67;64.83
34235;BME280;20500;49.856;20.290;2024-01-10T00:25:37;100739.83;;;-18.76;64.87
34235;BME280;20500;49.856;20.290;2024-01-10T00:28:44;100738.31;;;-18.80;64.88
34235;BME280;20500;49.856;20.290;2024-01-10T00:31:51;100738.64;;;-18.74;65.06
34235;BME280;20500;49.856;20.290;2024-01-10T00:34:58;100730.41;;;-18.71;64.95
34235;BME280;20500;49.856;20.290;2024-01-10T00:38:05;100731.52;;;-18.76;64.89
34235;BME280;20500;49.856;20.290;2024-01-10T00:41:11;100732.77;;;-18.80;64.76
34235;BME280;20500;49.856;20.290;2024-01-10T00:44:18;100733.46;;;-18.80;64.89
34235;BME280;20500;49.856;20.290;2024-01-10T00:47:24;100733.31;;;-18.73;65.03
34235;BME280;20500;49.856;20.290;2024-01-10T00:50:31;100734.77;;;-18.69;64.97
34235;BME280;20500;49.856;20.290;2024-01-10T00:53:37;100734.91;;;-18.78;64.64
34235;BME280;20500;49.856;20.290;2024-01-10T00:56:44;100732.55;;;-18.89;64.75
34235;BME280;20500;49.856;20.290;2024-01-10T00:59:50;100736.76;;;-18.93;64.84
34235;BME280;20500;49.856;20.290;2024-01-10T01:02:57;100731.61;;;-18.98;64.86
34235;BME280;20500;49.856;20.290;2024-01-10T01:06:03;100728.98;;;-19.00;64.85
34235;BME280;20500;49.856;20.290;2024-01-10T01:09:10;100731.79;;;-18.99;64.94
34235;BME280;20500;49.856;20.290;2024-01-10T01:12:18;100734.90;;;-18.99;64.91
34235;BME280;20500;49.856;20.290;2024-01-10T01:15:24;100733.30;;;-19.00;64.94
34235;BME280;20500;49.856;20.290;2024-01-10T01:18:30;100731.55;;;-19.01;65.02
34235;BME280;20500;49.856;20.290;2024-01-10T01:21:37;100733.51;;;-18.99;64.90
34235;BME280;20500;49.856;20.290;2024-01-10T01:24:43;100735.61;;;-18.98;64.89
34235;BME280;20500;49.856;20.290;2024-01-10T01:27:50;100733.89;;;-18.97;64.78
34235;BME280;20500;49.856;20.290;2024-01-10T01:30:56;100734.92;;;-18.97;64.95
34235;BME280;20500;49.856;20.290;2024-01-10T01:34:03;100736.71;;;-18.96;64.90
34235;BME280;20500;49.856;20.290;2024-01-10T01:37:09;100737.29;;;-18.93;64.96
34235;BME280;20500;49.856;20.290;2024-01-10T01:40:17;100735.27;;;-18.91;64.94
34235;BME280;20500;49.856;20.290;2024-01-10T01:43:24;100733.42;;;-18.82;65.08
34235;BME280;20500;49.856;20.290;2024-01-10T01:46:32;100731.27;;;-18.71;65.06
34235;BME280;20500;49.856;20.290;2024-01-10T01:49:39;100723.21;;;-18.68;65.01
34235;BME280;20500;49.856;20.290;2024-01-10T01:52:47;100718.11;;;-18.63;65.00
34235;BME280;20500;49.856;20.290;2024-01-10T01:55:54;100712.08;;;-18.70;64.78
34235;BME280;20500;49.856;20.290;2024-01-10T01:59:01;100709.98;;;-18.78;64.86
34235;BME280;20500;49.856;20.290;2024-01-10T02:02:09;100712.66;;;-18.82;64.73
34235;BME280;20500;49.856;20.290;2024-01-10T02:05:16;100710.81;;;-18.93;64.62
34235;BME280;20500;49.856;20.290;2024-01-10T02:08:23;100712.69;;;-19.01;64.64
34235;BME280;20500;49.856;20.290;2024-01-10T02:11:29;100710.49;;;-19.05;64.64
34235;BME280;20500;49.856;20.290;2024-01-10T02:14:36;100707.74;;;-19.11;64.64
34235;BME280;20500;49.856;20.290;2024-01-10T02:17:42;100706.83;;;-19.13;64.59
34235;BME280;20500;49.856;20.290;2024-01-10T02:20:49;100704.59;;;-19.19;64.54
34235;BME280;20500;49.856;20.290;2024-01-10T02:23:56;100703.79;;;-19.23;64.67
34235;BME280;20500;49.856;20.290;2024-01-10T02:27:02;100702.31;;;-19.20;64.68
34235;BME280;20500;49.856;20.290;2024-01-10T02:30:10;100697.30;;;-19.14;64.87
34235;BME280;20500;49.856;20.290;2024-01-10T02:33:17;100695.55;;;-19.01;64.91
34235;BME280;20500;49.856;20.290;2024-01-10T02:36:23;100692.41;;;-19.02;64.73
34235;BME280;20500;49.856;20.290;2024-01-10T02:39:30;100688.31;;;-19.12;64.54
34235;BME280;20500;49.856;20.290;2024-01-10T02:42:37;100687.48;;;-19.18;64.55
34235;BME280;20500;49.856;20.290;2024-01-10T02:45:43;100683.63;;;-19.26;64.62
34235;BME280;20500;49.856;20.290;2024-01-10T02:48:49;100682.69;;;-19.30;64.62
34235;BME280;20500;49.856;20.290;2024-01-10T02:51:56;100679.42;;;-19.29;64.69
34235;BME280;20500;49.856;20.290;2024-01-10T02:55:02;100676.79;;;-19.17;64.80
34235;BME280;20500;49.856;20.290;2024-01-10T02:58:09;100672.11;;;-19.17;64.64
34235;BME280;20500;49.856;20.290;2024-01-10T03:01:16;100669.02;;;-19.23;64.65
34235;BME280;20500;49.856;20.290;2024-01-10T03:04:23;100670.21;;;-19.24;64.68
34235;BME280;20500;49.856;20.290;2024-01-10T03:07:29;100673.91;;;-19.21;64.76
34235;BME280;20500;49.856;20.290;2024-01-10T03:10:36;100673.48;;;-19.18;64.55
34235;BME280;20500;49.856;20.290;2024-01-10T03:13:43;100670.84;;;-19.20;64.68
34235;BME280;20500;49.856;20.290;2024-01-10T03:16:50;100666.95;;;-19.23;64.68
34235;BME280;20500;49.856;20.290;2024-01-10T03:19:56;100659.08;;;-19.27;64.63
34235;BME280;20500;49.856;20.290;2024-01-10T03:23:03;100654.13;;;-19.24;64.76
34235;BME280;20500;49.856;20.290;2024-01-10T03:26:11;100650.73;;;-19.15;64.69
34235;BME280;20500;49.856;20.290;2024-01-10T03:29:17;100648.00;;;-19.20;64.52
34235;BME280;20500;49.856;20.290;2024-01-10T03:32:24;100653.27;;;-19.23;64.48
34235;BME280;20500;49.856;20.290;2024-01-10T03:35:30;100653.27;;;-19.30;64.53
34235;BME280;20500;49.856;20.290;2024-01-10T03:38:37;100650.72;;;-19.34;64.45
34235;BME280;20500;49.856;20.290;2024-01-10T03:41:43;100648.27;;;-19.35;64.40
34235;BME280;20500;49.856;20.290;2024-01-10T03:44:49;100644.08;;;-19.38;64.38
34235;BME280;20500;49.856;20.290;2024-01-10T03:47:56;100646.26;;;-19.34;64.50
34235;BME280;20500;49.856;20.290;2024-01-10T03:51:02;100649.33;;;-19.35;64.58
34235;BME280;20500;49.856;20.290;2024-01-10T03:54:09;100646.48;;;-19.38;64.47
34235;BME280;20500;49.856;20.290;2024-01-10T03:57:15;100647.23;;;-19.42;64.53
34235;BME280;20500;49.856;20.290;2024-01-10T04:00:22;100649.59;;;-19.45;64.52
34235;BME280;20500;49.856;20.290;2024-01-10T04:03:29;100642.80;;;-19.53;64.41
34235;BME280;20500;49.856;20.290;2024-01-10T04:06:36;100640.23;;;-19.52;64.46
34235;BME280;20500;49.856;20.290;2024-01-10T04:09:42;100633.93;;;-19.48;64.62
34235;BME280;20500;49.856;20.290;2024-01-10T04:12:49;100630.48;;;-19.55;64.43
34235;BME280;20500;49.856;20.290;2024-01-10T04:15:56;100630.76;;;-19.51;64.62
34235;BME280;20500;49.856;20.290;2024-01-10T04:19:02;100629.14;;;-19.47;64.44
34235;BME280;20500;49.856;20.290;2024-01-10T04:22:09;100632.16;;;-19.50;64.49
34235;BME280;20500;49.856;20.290;2024-01-10T04:25:15;100638.53;;;-19.51;64.46
34235;BME280;20500;49.856;20.290;2024-01-10T04:28:21;100631.05;;;-19.59;64.36
34235;BME280;20500;49.856;20.290;2024-01-10T04:31:28;100627.79;;;-19.58;64.55
34235;BME280;20500;49.856;20.290;2024-01-10T04:34:34;100632.64;;;-19.45;64.69
34235;BME280;20500;49.856;20.290;2024-01-10T04:37:41;100637.52;;;-19.37;64.50
34235;BME280;20500;49.856;20.290;2024-01-10T04:40:47;100642.95;;;-19.47;64.38
34235;BME280;20500;49.856;20.290;2024-01-10T04:43:54;100646.55;;;-19.54;64.29
34235;BME280;20500;49.856;20.290;2024-01-10T04:47:00;100644.19;;;-19.59;64.30
34235;BME280;20500;49.856;20.290;2024-01-10T04:50:08;100642.96;;;-19.60;64.44
34235;BME280;20500;49.856;20.290;2024-01-10T04:53:18;100643.03;;;-19.51;64.69
34235;BME280;20500;49.856;20.290;2024-01-10T04:56:25;100645.67;;;-19.42;64.58
34235;BME280;20500;49.856;20.290;2024-01-10T04:59:31;100646.04;;;-19.48;64.27
34235;BME280;20500;49.856;20.290;2024-01-10T05:02:38;100652.98;;;-19.47;64.43
34235;BME280;20500;49.856;20.290;2024-01-10T05:05:45;100657.66;;;-19.47;64.27
34235;BME280;20500;49.856;20.290;2024-01-10T05:08:51;100654.09;;;-19.57;64.20
34235;BME280;20500;49.856;20.290;2024-01-10T05:12:03;100653.21;;;-19.58;64.35
34235;BME280;20500;49.856;20.290;2024-01-10T05:15:10;100652.94;;;-19.49;64.98
34235;BME280;20500;49.856;20.290;2024-01-10T05:18:17;100654.13;;;-19.36;64.93
34235;BME280;20500;49.856;20.290;2024-01-10T05:21:24;100659.67;;;-19.30;64.74
34235;BME280;20500;49.856;20.290;2024-01-10T05:24:31;100666.48;;;-19.34;64.43
34235;BME280;20500;49.856;20.290;2024-01-10T05:27:37;100671.48;;;-19.47;64.17
34235;BME280;20500;49.856;20.290;2024-01-10T05:30:44;100677.02;;;-19.60;64.23
34235;BME280;20500;49.856;20.290;2024-01-10T05:33:51;100671.52;;;-19.65;64.39
34235;BME280;20500;49.856;20.290;2024-01-10T05:36:58;100668.46;;;-19.63;64.50
34235;BME280;20500;49.856;20.290;2024-01-10T05:40:06;100672.45;;;-19.56;64.55
34235;BME280;20500;49.856;20.290;2024-01-10T05:43:13;100677.48;;;-19.55;64.36
34235;BME280;20500;49.856;20.290;2024-01-10T05:46:20;100678.14;;;-19.56;64.45
34235;BME280;20500;49.856;20.290;2024-01-10T05:49:27;100675.42;;;-19.62;64.38
34235;BME280;20500;49.856;20.290;2024-01-10T05:52:33;100676.81;;;-19.68;64.42
34235;BME280;20500;49.856;20.290;2024-01-10T05:55:40;100670.82;;;-19.65;64.56
34235;BME280;20500;49.856;20.290;2024-01-10T05:58:46;100669.77;;;-19.66;64.47
34235;BME280;20500;49.856;20.290;2024-01-10T06:01:55;100675.63;;;-19.66;64.38
34235;BME280;20500;49.856;20.290;2024-01-10T06:05:02;100678.39;;;-19.67;64.38
34235;BME280;20500;49.856;20.290;2024-01-10T06:08:11;100676.83;;;-19.61;64.51
34235;BME280;20500;49.856;20.290;2024-01-10T06:11:19;100675.39;;;-19.56;64.45
34235;BME280;20500;49.856;20.290;2024-01-10T06:14:26;100680.19;;;-19.57;64.47
34235;BME280;20500;49.856;20.290;2024-01-10T06:17:32;100683.95;;;-19.53;64.51
34235;BME280;20500;49.856;20.290;2024-01-10T06:20:39;100682.85;;;-19.49;64.43
34235;BME280;20500;49.856;20.290;2024-01-10T06:23:45;100680.19;;;-19.52;64.31
34235;BME280;20500;49.856;20.290;2024-01-10T06:26:52;100679.52;;;-19.51;64.43
34235;BME280;20500;49.856;20.290;2024-01-10T06:29:58;100682.52;;;-19.54;64.23
34235;BME280;20500;49.856;20.290;2024-01-10T06:33:06;100683.52;;;-19.69;63.99
34235;BME280;20500;49.856;20.290;2024-01-10T06:36:13;100686.62;;;-19.76;64.13
34235;BME280;20500;49.856;20.290;2024-01-10T06:39:19;100681.98;;;-19.80;64.18
34235;BME280;20500;49.856;20.290;2024-01-10T06:42:26;100685.60;;;-19.81;64.11
34235;BME280;20500;49.856;20.290;2024-01-10T06:45:32;100691.36;;;-19.79;64.28
34235;BME280;20500;49.856;20.290;2024-01-10T06:48:38;100690.36;;;-19.78;64.21
34235;BME280;20500;49.856;20.290;2024-01-10T06:51:47;100682.39;;;-19.79;64.21
34235;BME280;20500;49.856;20.290;2024-01-10T06:54:53;100685.52;;;-19.71;64.32
34235;BME280;20500;49.856;20.290;2024-01-10T06:57:59;100688.28;;;-19.59;64.45
34235;BME280;20500;49.856;20.290;2024-01-10T07:01:10;100684.95;;;-19.61;64.29
34235;BME280;20500;49.856;20.290;2024-01-10T07:04:19;100681.84;;;-19.54;64.56
34235;BME280;20500;49.856;20.290;2024-01-10T07:07:29;100680.73;;;-19.44;64.42
34235;BME280;20500;49.856;20.290;2024-01-10T07:10:35;100676.59;;;-19.50;64.26
34235;BME280;20500;49.856;20.290;2024-01-10T07:13:43;100673.19;;;-19.48;64.28
34235;BME280;20500;49.856;20.290;2024-01-10T07:16:50;100665.52;;;-19.43;64.29
34235;BME280;20500;49.856;20.290;2024-01-10T07:19:56;100663.20;;;-19.40;64.41
34235;BME280;20500;49.856;20.290;2024-01-10T07:23:04;100662.19;;;-19.39;64.37
34235;BME280;20500;49.856;20.290;2024-01-10T07:26:12;100662.84;;;-19.40;64.46
34235;BME280;20500;49.856;20.290;2024-01-10T07:29:18;100665.52;;;-19.31;64.46
34235;BME280;20500;49.856;20.290;2024-01-10T07:32:25;100669.16;;;-19.25;64.39
34235;BME280;20500;49.856;20.290;2024-01-10T07:35:32;100671.19;;;-19.33;64.17
34235;BME280;20500;49.856;20.290;2024-01-10T07:38:38;100675.60;;;-19.48;64.16
34235;BME280;20500;49.856;20.290;2024-01-10T07:41:45;100676.03;;;-19.71;64.06
34235;BME280;20500;49.856;20.290;2024-01-10T07:44:52;100671.27;;;-19.75;64.29
34235;BME280;20500;49.856;20.290;2024-01-10T07:47:58;100678.99;;;-19.64;64.47
34235;BME280;20500;49.856;20.290;2024-01-10T07:51:06;100679.55;;;-19.56;64.56
34235;BME280;20500;49.856;20.290;2024-01-10T07:54:12;100678.99;;;-19.57;64.50
34235;BME280;20500;49.856;20.290;2024-01-10T07:57:19;100671.08;;;-19.55;64.53
34235;BME280;20500;49.856;20.290;2024-01-10T08:00:26;100664.67;;;-19.44;64.78
34235;BME280;20500;49.856;20.290;2024-01-10T08:03:32;100663.13;;;-19.30;64.91
34235;BME280;20500;49.856;20.290;2024-01-10T08:06:40;100661.67;;;-19.13;64.97
34235;BME280;20500;49.856;20.290;2024-01-10T08:09:47;100660.71;;;-18.97;64.96
34235;BME280;20500;49.856;20.290;2024-01-10T08:12:53;100666.48;;;-18.81;65.13
34235;BME280;20500;49.856;20.290;2024-01-10T08:16:01;100664.16;;;-18.61;65.30
34235;BME280;20500;49.856;20.290;2024-01-10T08:19:08;100658.19;;;-18.42;65.43
34235;BME280;20500;49.856;20.290;2024-01-10T08:22:16;100665.48;;;-18.27;65.44
34235;BME280;20500;49.856;20.290;2024-01-10T08:25:22;100664.91;;;-18.13;65.51
34235;BME280;20500;49.856;20.290;2024-01-10T08:28:28;100664.98;;;-18.02;65.52
34235;BME280;20500;49.856;20.290;2024-01-10T08:31:35;100666.95;;;-17.91;65.58
34235;BME280;20500;49.856;20.290;2024-01-10T08:34:42;100672.24;;;-17.87;65.51
34235;BME280;20500;49.856;20.290;2024-01-10T08:37:49;100675.72;;;-17.87;65.52
34235;BME280;20500;49.856;20.290;2024-01-10T08:40:56;100676.42;;;-17.86;65.40
34235;BME280;20500;49.856;20.290;2024-01-10T08:44:02;100678.52;;;-17.86;65.56
34235;BME280;20500;49.856;20.290;2024-01-10T08:47:09;100678.05;;;-17.83;65.69
34235;BME280;20500;49.856;20.290;2024-01-10T08:50:16;100676.34;;;-17.73;65.87
34235;BME280;20500;49.856;20.290;2024-01-10T08:53:23;100675.92;;;-17.59;66.02
34235;BME280;20500;49.856;20.290;2024-01-10T08:56:29;100668.89;;;-17.46;66.10
34235;BME280;20500;49.856;20.290;2024-01-10T08:59:36;100659.06;;;-17.34;66.15
34235;BME280;20500;49.856;20.290;2024-01-10T09:02:42;100653.23;;;-17.21;66.26
34235;BME280;20500;49.856;20.290;2024-01-10T09:05:49;100651.65;;;-17.13;66.35
34235;BME280;20500;49.856;20.290;2024-01-10T09:09:11;100653.23;;;-17.02;66.36
34235;BME280;20500;49.856;20.290;2024-01-10T09:12:18;100653.64;;;-16.89;66.44
34235;BME280;20500;49.856;20.290;2024-01-10T09:15:24;100649.83;;;-16.78;66.46
34235;BME280;20500;49.856;20.290;2024-01-10T09:18:31;100645.67;;;-16.64;66.72
34235;BME280;20500;49.856;20.290;2024-01-10T09:21:37;100644.53;;;-16.49;66.76
34235;BME280;20500;49.856;20.290;2024-01-10T09:24:44;100638.66;;;-16.36;66.82
34235;BME280;20500;49.856;20.290;2024-01-10T09:27:50;100635.86;;;-16.25;66.93
34235;BME280;20500;49.856;20.290;2024-01-10T09:30:57;100631.52;;;-16.12;66.93
34235;BME280;20500;49.856;20.290;2024-01-10T09:34:03;100625.96;;;-15.99;67.08
34235;BME280;20500;49.856;20.290;2024-01-10T09:37:10;100620.40;;;-15.86;67.24
34235;BME280;20500;49.856;20.290;2024-01-10T09:40:17;100619.52;;;-15.73;67.26
34235;BME280;20500;49.856;20.290;2024-01-10T09:43:25;100611.81;;;-15.60;67.43
34235;BME280;20500;49.856;20.290;2024-01-10T09:46:35;100608.32;;;-15.45;67.54
34235;BME280;20500;49.856;20.290;2024-01-10T09:49:45;100602.04;;;-15.30;67.70
34235;BME280;20500;49.856;20.290;2024-01-10T09:52:52;100599.23;;;-15.16;67.73
34235;BME280;20500;49.856;20.290;2024-01-10T09:55:59;100594.11;;;-15.04;67.89
34235;BME280;20500;49.856;20.290;2024-01-10T09:59:07;100592.32;;;-14.91;68.01
34235;BME280;20500;49.856;20.290;2024-01-10T10:02:17;100591.73;;;-14.76;68.09
34235;BME280;20500;49.856;20.290;2024-01-10T10:05:24;100584.90;;;-14.58;68.47
34235;BME280;20500;49.856;20.290;2024-01-10T10:08:31;100584.36;;;-14.32;68.77
34235;BME280;20500;49.856;20.290;2024-01-10T10:11:37;100582.70;;;-14.15;68.58
34235;BME280;20500;49.856;20.290;2024-01-10T10:14:44;100586.08;;;-14.02;68.60
34235;BME280;20500;49.856;20.290;2024-01-10T10:17:51;100581.77;;;-13.90;68.62
34235;BME280;20500;49.856;20.290;2024-01-10T10:21:12;100581.83;;;-13.80;68.60
34235;BME280;20500;49.856;20.290;2024-01-10T10:24:19;100577.34;;;-13.67;68.75
34235;BME280;20500;49.856;20.290;2024-01-10T10:27:30;100575.80;;;-13.54;68.82
34235;BME280;20500;49.856;20.290;2024-01-10T10:30:37;100574.63;;;-13.41;68.96
34235;BME280;20500;49.856;20.290;2024-01-10T10:33:44;100565.39;;;-13.30;69.02
34235;BME280;20500;49.856;20.290;2024-01-10T10:36:51;100561.71;;;-13.18;69.11
34235;BME280;20500;49.856;20.290;2024-01-10T10:39:57;100563.64;;;-13.07;69.24
34235;BME280;20500;49.856;20.290;2024-01-10T10:43:05;100558.59;;;-12.96;69.42
34235;BME280;20500;49.856;20.290;2024-01-10T10:46:13;100555.96;;;-12.83;69.47
34235;BME280;20500;49.856;20.290;2024-01-10T10:49:27;100550.89;;;-12.70;69.56
34235;BME280;20500;49.856;20.290;2024-01-10T10:52:35;100550.88;;;-12.56;69.74
34235;BME280;20500;49.856;20.290;2024-01-10T10:55:43;100542.48;;;-12.43;69.79
34235;BME280;20500;49.856;20.290;2024-01-10T10:58:52;100541.39;;;-12.31;69.89
34235;BME280;20500;49.856;20.290;2024-01-10T11:01:59;100533.83;;;-12.19;69.95
34235;BME280;20500;49.856;20.290;2024-01-10T11:05:07;100530.81;;;-12.06;70.11
34235;BME280;20500;49.856;20.290;2024-01-10T11:08:16;100522.52;;;-11.88;70.29
34235;BME280;20500;49.856;20.290;2024-01-10T11:11:34;100522.06;;;-11.72;70.33
34235;BME280;20500;49.856;20.290;2024-01-10T11:14:56;100524.60;;;-11.55;70.34
34235;BME280;20500;49.856;20.290;2024-01-10T11:18:21;100522.77;;;-11.43;70.38
34235;BME280;20500;49.856;20.290;2024-01-10T11:21:41;100517.41;;;-11.26;70.56
34235;BME280;20500;49.856;20.290;2024-01-10T11:24:53;100514.31;;;-11.09;70.60
34235;BME280;20500;49.856;20.290;2024-01-10T11:28:05;100514.20;;;-10.94;70.72
34235;BME280;20500;49.856;20.290;2024-01-10T11:31:14;100513.36;;;-10.77;70.76
34235;BME280;20500;49.856;20.290;2024-01-10T11:34:25;100511.46;;;-10.63;70.85
34235;BME280;20500;49.856;20.290;2024-01-10T11:37:42;100511.48;;;-10.46;71.02
34235;BME280;20500;49.856;20.290;2024-01-10T11:40:49;100511.22;;;-10.25;71.30
34235;BME280;20500;49.856;20.290;2024-01-10T11:44:27;100516.98;;;-10.07;71.31
34235;BME280;20500;49.856;20.290;2024-01-10T11:47:33;100519.97;;;-9.92;71.31
34235;BME280;20500;49.856;20.290;2024-01-10T11:50:40;100519.97;;;-9.78;71.41
34235;BME280;20500;49.856;20.290;2024-01-10T11:53:47;100522.63;;;-9.65;71.58
34235;BME280;20500;49.856;20.290;2024-01-10T11:56:55;100518.86;;;-9.48;71.71
34235;BME280;20500;49.856;20.290;2024-01-10T12:00:02;100515.61;;;-9.29;71.89
34235;BME280;20500;49.856;20.290;2024-01-10T12:03:11;100511.31;;;-9.12;72.00
34235;BME280;20500;49.856;20.290;2024-01-10T12:06:18;100504.09;;;-9.00;72.02
34235;BME280;20500;49.856;20.290;2024-01-10T12:09:26;100502.11;;;-8.86;72.10
34235;BME280;20500;49.856;20.290;2024-01-10T12:12:34;100503.86;;;-8.76;72.11
34235;BME280;20500;49.856;20.290;2024-01-10T12:15:41;100506.79;;;-8.62;72.21
34235;BME280;20500;49.856;20.290;2024-01-10T12:18:47;100508.64;;;-8.47;72.32
34235;BME280;20500;49.856;20.290;2024-01-10T12:21:54;100504.65;;;-8.33;72.42
34235;BME280;20500;49.856;20.290;2024-01-10T12:25:05;100503.00;;;-8.20;72.49
34235;BME280;20500;49.856;20.290;2024-01-10T12:28:17;100502.77;;;-8.09;72.61
34235;BME280;20500;49.856;20.290;2024-01-10T12:31:24;100498.20;;;-8.00;72.52
34235;BME280;20500;49.856;20.290;2024-01-10T12:34:31;100499.60;;;-7.91;72.42
34235;BME280;20500;49.856;20.290;2024-01-10T12:37:37;100496.84;;;-7.85;72.31
34235;BME280;20500;49.856;20.290;2024-01-10T12:40:44;100495.31;;;-7.80;72.34
34235;BME280;20500;49.856;20.290;2024-01-10T12:43:55;100487.39;;;-7.71;72.51
34235;BME280;20500;49.856;20.290;2024-01-10T12:47:02;100481.31;;;-7.60;72.70
34235;BME280;20500;49.856;20.290;2024-01-10T12:50:10;100477.33;;;-7.46;72.77
34235;BME280;20500;49.856;20.290;2024-01-10T12:53:17;100475.84;;;-7.36;72.78
34235;BME280;20500;49.856;20.290;2024-01-10T12:56:23;100471.08;;;-7.28;72.78
34235;BME280;20500;49.856;20.290;2024-01-10T12:59:30;100470.77;;;-7.23;72.91
34235;BME280;20500;49.856;20.290;2024-01-10T13:02:37;100465.69;;;-7.16;73.01
34235;BME280;20500;49.856;20.290;2024-01-10T13:05:45;100461.46;;;-7.09;73.12
34235;BME280;20500;49.856;20.290;2024-01-10T13:08:51;100455.09;;;-7.01;73.19
34235;BME280;20500;49.856;20.290;2024-01-10T13:11:59;100452.11;;;-6.95;73.21
34235;BME280;20500;49.856;20.290;2024-01-10T13:15:07;100446.28;;;-6.88;73.21
34235;BME280;20500;49.856;20.290;2024-01-10T13:18:14;100447.02;;;-6.82;73.20
34235;BME280;20500;49.856;20.290;2024-01-10T13:21:20;100442.09;;;-6.76;73.22
34235;BME280;20500;49.856;20.290;2024-01-10T13:24:27;100437.89;;;-6.70;73.36
34235;BME280;20500;49.856;20.290;2024-01-10T13:27:34;100442.39;;;-6.67;73.28
34235;BME280;20500;49.856;20.290;2024-01-10T13:30:41;100441.23;;;-6.63;73.38
34235;BME280;20500;49.856;20.290;2024-01-10T13:33:48;100438.75;;;-6.56;73.47
34235;BME280;20500;49.856;20.290;2024-01-10T13:36:55;100435.82;;;-6.52;73.45
34235;BME280;20500;49.856;20.290;2024-01-10T13:40:01;100435.10;;;-6.52;73.48
34235;BME280;20500;49.856;20.290;2024-01-10T13:43:11;100433.83;;;-6.50;73.50
34235;BME280;20500;49.856;20.290;2024-01-10T13:46:18;100433.39;;;-6.54;73.30
34235;BME280;20500;49.856;20.290;2024-01-10T13:49:24;100435.77;;;-6.57;73.26
34235;BME280;20500;49.856;20.290;2024-01-10T13:52:31;100437.57;;;-6.58;73.22
34235;BME280;20500;49.856;20.290;2024-01-10T13:55:38;100432.02;;;-6.55;73.31
34235;BME280;20500;49.856;20.290;2024-01-10T13:58:44;100429.23;;;-6.50;73.48
34235;BME280;20500;49.856;20.290;2024-01-10T14:01:50;100428.21;;;-6.45;73.55
34235;BME280;20500;49.856;20.290;2024-01-10T14:04:57;100426.75;;;-6.44;73.50
34235;BME280;20500;49.856;20.290;2024-01-10T14:08:04;100422.95;;;-6.47;73.58
34235;BME280;20500;49.856;20.290;2024-01-10T14:11:11;100420.70;;;-6.48;73.67
34235;BME280;20500;49.856;20.290;2024-01-10T14:14:17;100422.00;;;-6.44;73.84
34235;BME280;20500;49.856;20.290;2024-01-10T14:17:30;100418.20;;;-6.42;73.70
34235;BME280;20500;49.856;20.290;2024-01-10T14:20:36;100415.09;;;-6.44;73.70
34235;BME280;20500;49.856;20.290;2024-01-10T14:23:46;100413.13;;;-6.49;73.67
34235;BME280;20500;49.856;20.290;2024-01-10T14:26:53;100411.39;;;-6.56;73.50
34235;BME280;20500;49.856;20.290;2024-01-10T14:29:59;100410.52;;;-6.64;73.50
34235;BME280;20500;49.856;20.290;2024-01-10T14:33:08;100410.55;;;-6.71;73.49
34235;BME280;20500;49.856;20.290;2024-01-10T14:36:15;100411.30;;;-6.79;73.41
34235;BME280;20500;49.856;20.290;2024-01-10T14:39:21;100406.95;;;-6.89;73.46
34235;BME280;20500;49.856;20.290;2024-01-10T14:42:28;100405.07;;;-6.98;73.45
34235;BME280;20500;49.856;20.290;2024-01-10T14:45:34;100404.17;;;-7.11;73.14
34235;BME280;20500;49.856;20.290;2024-01-10T14:48:41;100406.05;;;-7.23;73.24
34235;BME280;20500;49.856;20.290;2024-01-10T14:51:47;100403.42;;;-7.31;73.30
34235;BME280;20500;49.856;20.290;2024-01-10T14:54:54;100401.52;;;-7.40;73.25
34235;BME280;20500;49.856;20.290;2024-01-10T14:58:04;100399.84;;;-7.50;73.18
34235;BME280;20500;49.856;20.290;2024-01-10T15:01:11;100403.91;;;-7.59;73.30
34235;BME280;20500;49.856;20.290;2024-01-10T15:04:18;100406.86;;;-7.65;73.19
34235;BME280;20500;49.856;20.290;2024-01-10T15:07:25;100407.70;;;-7.78;73.02
34235;BME280;20500;49.856;20.290;2024-01-10T15:10:31;100404.52;;;-7.94;72.80
34235;BME280;20500;49.856;20.290;2024-01-10T15:13:38;100407.85;;;-8.10;72.66
34235;BME280;20500;49.856;20.290;2024-01-10T15:16:47;100407.25;;;-8.23;72.85
34235;BME280;20500;49.856;20.290;2024-01-10T15:19:53;100407.42;;;-8.31;72.80
34235;BME280;20500;49.856;20.290;2024-01-10T15:23:00;100405.59;;;-8.44;72.82
34235;BME280;20500;49.856;20.290;2024-01-10T15:26:07;100403.52;;;-8.54;72.79
34235;BME280;20500;49.856;20.290;2024-01-10T15:29:13;100401.46;;;-8.57;72.90
34235;BME280;20500;49.856;20.290;2024-01-10T15:32:20;100401.55;;;-8.61;72.61
34235;BME280;20500;49.856;20.290;2024-01-10T15:35:27;100400.55;;;-8.74;72.36
34235;BME280;20500;49.856;20.290;2024-01-10T15:38:33;100402.70;;;-8.85;72.42
34235;BME280;20500;49.856;20.290;2024-01-10T15:41:40;100400.77;;;-8.95;72.33
34235;BME280;20500;49.856;20.290;2024-01-10T15:44:46;100397.07;;;-9.05;72.14
34235;BME280;20500;49.856;20.290;2024-01-10T15:47:53;100391.54;;;-9.20;71.97
34235;BME280;20500;49.856;20.290;2024-01-10T15:50:59;100390.11;;;-9.31;72.19
34235;BME280;20500;49.856;20.290;2024-01-10T15:54:06;100388.61;;;-9.35;72.22
34235;BME280;20500;49.856;20.290;2024-01-10T15:57:12;100390.20;;;-9.35;72.43